createdAt,value
2016-08-15T00:00:21.145Z,0
2016-08-15T00:00:45.381Z,0
2016-08-15T00:01:09.498Z,0
2016-08-15T00:01:33.659Z,0
2016-08-15T00:01:57.814Z,0
2016-08-15T00:02:21.928Z,0
2016-08-15T00:02:46.063Z,0
2016-08-15T00:03:10.171Z,0
2016-08-15T00:03:34.318Z,0
2016-08-15T00:03:58.425Z,0
2016-08-15T00:04:22.556Z,0
2016-08-15T00:04:46.666Z,0
2016-08-15T00:05:10.800Z,0
2016-08-15T00:05:34.931Z,0
2016-08-15T00:05:59.056Z,0
2016-08-15T00:06:23.194Z,0
2016-08-15T00:06:47.315Z,0
2016-08-15T00:07:11.416Z,0
2016-08-15T00:07:35.577Z,0
2016-08-15T00:07:59.702Z,0
2016-08-15T00:08:23.812Z,0
2016-08-15T00:08:47.944Z,0
2016-08-15T00:09:12.058Z,0
2016-08-15T00:09:36.182Z,0
2016-08-15T00:10:00.299Z,0
2016-08-15T00:10:24.471Z,0
2016-08-15T00:10:48.596Z,0
2016-08-15T00:11:12.723Z,0
2016-08-15T00:11:36.846Z,0
2016-08-15T00:12:00.953Z,0
2016-08-15T00:12:25.064Z,0
2016-08-15T00:12:49.204Z,0
2016-08-15T00:13:13.315Z,0
2016-08-15T00:13:37.433Z,0
2016-08-15T00:14:01.572Z,0
2016-08-15T00:14:25.672Z,0
2016-08-15T00:14:49.804Z,0
2016-08-15T00:15:14.017Z,0
2016-08-15T00:15:38.143Z,0
2016-08-15T00:16:02.277Z,0
2016-08-15T00:16:26.402Z,0
2016-08-15T00:16:50.546Z,0
2016-08-15T00:17:14.666Z,0
2016-08-15T00:17:38.788Z,0
2016-08-15T00:18:02.905Z,0
2016-08-15T00:18:27.036Z,0
2016-08-15T00:18:51.151Z,0
2016-08-15T00:19:15.899Z,0
2016-08-15T00:19:40.066Z,0
2016-08-15T00:20:04.182Z,0
2016-08-15T00:20:28.306Z,0
2016-08-15T00:20:52.438Z,0
2016-08-15T00:21:16.583Z,0
2016-08-15T00:21:40.706Z,0
2016-08-15T00:22:04.855Z,0
2016-08-15T00:22:28.986Z,0
2016-08-15T00:22:53.156Z,0
2016-08-15T00:23:17.266Z,0
2016-08-15T00:23:41.390Z,0
2016-08-15T00:24:05.532Z,0
2016-08-15T00:24:29.681Z,0
2016-08-15T00:24:53.829Z,0
2016-08-15T00:25:17.973Z,0
2016-08-15T00:25:42.087Z,0
2016-08-15T00:26:06.212Z,0
2016-08-15T00:26:30.377Z,0
2016-08-15T00:26:54.472Z,0
2016-08-15T00:27:18.573Z,0
2016-08-15T00:27:42.711Z,0
2016-08-15T00:28:06.891Z,0
2016-08-15T00:28:30.992Z,0
2016-08-15T00:28:55.124Z,0
2016-08-15T00:29:19.278Z,0
2016-08-15T00:29:43.411Z,0
2016-08-15T00:30:07.567Z,0
2016-08-15T00:30:31.707Z,0
2016-08-15T00:30:55.837Z,0
2016-08-15T00:31:19.961Z,0
2016-08-15T00:31:44.088Z,0
2016-08-15T00:32:08.256Z,0
2016-08-15T00:32:32.385Z,0
2016-08-15T00:32:56.528Z,0
2016-08-15T00:33:20.632Z,0
2016-08-15T00:33:44.775Z,0
2016-08-15T00:34:08.889Z,0
2016-08-15T00:34:32.997Z,0
2016-08-15T00:34:57.126Z,0
2016-08-15T00:35:21.248Z,0
2016-08-15T00:35:45.374Z,0
2016-08-15T00:36:09.518Z,0
2016-08-15T00:36:33.670Z,0
2016-08-15T00:36:57.845Z,0
2016-08-15T00:37:21.994Z,0
2016-08-15T00:37:46.105Z,0
2016-08-15T00:38:10.242Z,0
2016-08-15T00:38:34.404Z,0
2016-08-15T00:38:58.584Z,0
2016-08-15T00:39:22.767Z,0
2016-08-15T00:39:46.959Z,0
2016-08-15T00:40:11.115Z,0
2016-08-15T00:40:35.245Z,0
2016-08-15T00:40:59.360Z,0
2016-08-15T00:41:23.535Z,0
2016-08-15T00:41:47.685Z,0
2016-08-15T00:42:11.815Z,0
2016-08-15T00:42:35.988Z,0
2016-08-15T00:43:00.132Z,0
2016-08-15T00:43:24.294Z,0
2016-08-15T00:43:48.411Z,0
2016-08-15T00:44:12.551Z,0
2016-08-15T00:44:36.692Z,0
2016-08-15T00:45:00.826Z,0
2016-08-15T00:45:24.955Z,0
2016-08-15T00:45:49.091Z,0
2016-08-15T00:46:13.195Z,0
2016-08-15T00:46:37.382Z,0
2016-08-15T00:47:01.477Z,0
2016-08-15T00:47:25.627Z,0
2016-08-15T00:47:49.728Z,0
2016-08-15T00:48:13.859Z,0
2016-08-15T00:48:38.088Z,0
2016-08-15T00:49:02.183Z,0
2016-08-15T00:49:26.294Z,0
2016-08-15T00:49:50.447Z,0
2016-08-15T00:50:14.555Z,0
2016-08-15T00:50:38.692Z,0
2016-08-15T00:51:02.830Z,0
2016-08-15T00:51:26.935Z,0
2016-08-15T00:51:51.077Z,0
2016-08-15T00:52:15.231Z,0
2016-08-15T00:52:39.350Z,0
2016-08-15T00:53:03.564Z,0
2016-08-15T00:53:27.722Z,0
2016-08-15T00:53:51.888Z,0
2016-08-15T00:54:16.006Z,0
2016-08-15T00:54:40.163Z,0
2016-08-15T00:55:04.294Z,0
2016-08-15T00:55:28.439Z,0
2016-08-15T00:55:52.558Z,0
2016-08-15T00:56:16.749Z,0
2016-08-15T00:56:40.886Z,0
2016-08-15T00:57:05.028Z,0
2016-08-15T00:57:29.128Z,0
2016-08-15T00:57:53.268Z,0
2016-08-15T00:58:17.366Z,0
2016-08-15T00:58:41.507Z,0
2016-08-15T00:59:05.675Z,0
2016-08-15T00:59:29.837Z,0
2016-08-15T00:59:53.961Z,0
2016-08-15T01:00:18.069Z,0
2016-08-15T01:00:42.233Z,0
2016-08-15T01:01:06.385Z,0
2016-08-15T01:01:30.520Z,0
2016-08-15T01:01:54.647Z,0
2016-08-15T01:02:18.747Z,0
2016-08-15T01:02:42.860Z,0
2016-08-15T01:03:06.986Z,0
2016-08-15T01:03:31.095Z,0
2016-08-15T01:03:55.206Z,0
2016-08-15T01:04:19.368Z,0
2016-08-15T01:04:43.476Z,0
2016-08-15T01:05:07.592Z,0
2016-08-15T01:05:31.687Z,0
2016-08-15T01:05:55.803Z,0
2016-08-15T01:06:19.949Z,0
2016-08-15T01:06:44.070Z,0
2016-08-15T01:07:08.194Z,0
2016-08-15T01:07:32.331Z,0
2016-08-15T01:07:56.448Z,0
2016-08-15T01:08:20.594Z,0
2016-08-15T01:08:44.704Z,0
2016-08-15T01:09:08.808Z,0
2016-08-15T01:09:32.907Z,0
2016-08-15T01:09:57.054Z,0
2016-08-15T01:10:21.198Z,0
2016-08-15T01:10:45.302Z,0
2016-08-15T01:11:09.410Z,0
2016-08-15T01:11:33.541Z,0
2016-08-15T01:11:57.663Z,0
2016-08-15T01:12:21.784Z,0
2016-08-15T01:12:45.887Z,0
2016-08-15T01:13:10.003Z,0
2016-08-15T01:13:34.155Z,0
2016-08-15T01:13:58.304Z,0
2016-08-15T01:14:22.463Z,0
2016-08-15T01:14:46.609Z,0
2016-08-15T01:15:10.761Z,0
2016-08-15T01:15:34.866Z,0
2016-08-15T01:15:59.019Z,0
2016-08-15T01:16:23.143Z,0
2016-08-15T01:16:47.300Z,0
2016-08-15T01:17:11.433Z,0
2016-08-15T01:17:35.650Z,0
2016-08-15T01:17:59.759Z,0
2016-08-15T01:18:23.885Z,0
2016-08-15T01:18:48.027Z,0
2016-08-15T01:19:12.154Z,0
2016-08-15T01:19:36.266Z,0
2016-08-15T01:20:00.356Z,0
2016-08-15T01:20:24.503Z,0
2016-08-15T01:20:48.599Z,0
2016-08-15T01:21:12.747Z,0
2016-08-15T01:21:36.858Z,0
2016-08-15T01:22:00.984Z,0
2016-08-15T01:22:25.087Z,0
2016-08-15T01:22:49.243Z,0
2016-08-15T01:23:13.376Z,0
2016-08-15T01:23:37.505Z,0
2016-08-15T01:24:01.612Z,0
2016-08-15T01:24:25.715Z,0
2016-08-15T01:24:49.847Z,0
2016-08-15T01:25:13.948Z,0
2016-08-15T01:25:38.149Z,0
2016-08-15T01:26:02.329Z,0
2016-08-15T01:26:26.460Z,0
2016-08-15T01:26:50.583Z,0
2016-08-15T01:27:14.699Z,0
2016-08-15T01:27:38.799Z,0
2016-08-15T01:28:02.938Z,0
2016-08-15T01:28:27.075Z,0
2016-08-15T01:28:51.222Z,0
2016-08-15T01:29:15.332Z,0
2016-08-15T01:29:39.487Z,0
2016-08-15T01:30:03.599Z,0
2016-08-15T01:30:27.717Z,0
2016-08-15T01:30:51.850Z,0
2016-08-15T01:31:15.956Z,0
2016-08-15T01:31:40.072Z,0
2016-08-15T01:32:04.187Z,0
2016-08-15T01:32:28.338Z,0
2016-08-15T01:32:52.496Z,0
2016-08-15T01:33:16.650Z,0
2016-08-15T01:33:40.784Z,0
2016-08-15T01:34:04.880Z,0
2016-08-15T01:34:28.992Z,0
2016-08-15T01:34:53.096Z,0
2016-08-15T01:35:17.211Z,0
2016-08-15T01:35:41.335Z,0
2016-08-15T01:36:05.452Z,0
2016-08-15T01:36:29.563Z,0
2016-08-15T01:36:53.648Z,0
2016-08-15T01:37:17.757Z,0
2016-08-15T01:37:41.872Z,0
2016-08-15T01:38:06.043Z,0
2016-08-15T01:38:30.165Z,0
2016-08-15T01:38:54.286Z,0
2016-08-15T01:39:18.394Z,0
2016-08-15T01:39:42.531Z,0
2016-08-15T01:40:06.662Z,0
2016-08-15T01:40:30.783Z,0
2016-08-15T01:40:54.887Z,0
2016-08-15T01:41:18.994Z,0
2016-08-15T01:41:43.094Z,0
2016-08-15T01:42:07.254Z,0
2016-08-15T01:42:31.373Z,0
2016-08-15T01:42:55.481Z,0
2016-08-15T01:43:19.640Z,0
2016-08-15T01:43:43.763Z,0
2016-08-15T01:44:07.894Z,0
2016-08-15T01:44:32.038Z,0
2016-08-15T01:44:56.184Z,0
2016-08-15T01:45:20.289Z,0
2016-08-15T01:45:44.419Z,0
2016-08-15T01:46:08.522Z,0
2016-08-15T01:46:32.643Z,0
2016-08-15T01:46:56.793Z,0
2016-08-15T01:47:20.937Z,0
2016-08-15T01:47:45.110Z,0
2016-08-15T01:48:09.336Z,0
2016-08-15T01:48:33.478Z,0
2016-08-15T01:48:57.643Z,0
2016-08-15T01:49:21.755Z,0
2016-08-15T01:49:45.866Z,0
2016-08-15T01:50:09.982Z,0
2016-08-15T01:50:34.123Z,0
2016-08-15T01:50:58.247Z,0
2016-08-15T01:51:22.356Z,0
2016-08-15T01:51:46.482Z,0
2016-08-15T01:52:10.633Z,0
2016-08-15T01:52:34.758Z,0
2016-08-15T01:52:58.922Z,0
2016-08-15T01:53:23.046Z,0
2016-08-15T01:53:47.164Z,0
2016-08-15T01:54:11.275Z,0
2016-08-15T01:54:35.380Z,0
2016-08-15T01:54:59.544Z,0
2016-08-15T01:55:23.696Z,0
2016-08-15T01:55:47.840Z,0
2016-08-15T01:56:11.960Z,0
2016-08-15T01:56:36.079Z,0
2016-08-15T01:57:00.224Z,0
2016-08-15T01:57:24.353Z,0
2016-08-15T01:57:48.462Z,0
2016-08-15T01:58:12.584Z,0
2016-08-15T01:58:36.734Z,0
2016-08-15T01:59:00.902Z,0
2016-08-15T01:59:25.030Z,0
2016-08-15T01:59:49.166Z,0
2016-08-15T02:00:13.367Z,0
2016-08-15T02:00:37.484Z,0
2016-08-15T02:01:01.607Z,0
2016-08-15T02:01:25.774Z,0
2016-08-15T02:01:49.951Z,0
2016-08-15T02:02:14.061Z,0
2016-08-15T02:02:38.199Z,0
2016-08-15T02:03:02.318Z,0
2016-08-15T02:03:26.443Z,0
2016-08-15T02:03:50.599Z,0
2016-08-15T02:04:14.748Z,0
2016-08-15T02:04:38.891Z,0
2016-08-15T02:05:03.017Z,0
2016-08-15T02:05:27.118Z,0
2016-08-15T02:05:51.235Z,0
2016-08-15T02:06:15.413Z,0
2016-08-15T02:06:39.593Z,0
2016-08-15T02:07:03.747Z,0
2016-08-15T02:07:27.860Z,0
2016-08-15T02:07:51.976Z,0
2016-08-15T02:08:16.096Z,0
2016-08-15T02:08:40.234Z,0
2016-08-15T02:09:04.370Z,0
2016-08-15T02:09:28.492Z,0
2016-08-15T02:09:52.621Z,0
2016-08-15T02:10:16.802Z,0
2016-08-15T02:10:40.973Z,0
2016-08-15T02:11:05.119Z,0
2016-08-15T02:11:29.248Z,0
2016-08-15T02:11:53.381Z,0
2016-08-15T02:12:17.498Z,0
2016-08-15T02:12:41.655Z,0
2016-08-15T02:13:05.798Z,0
2016-08-15T02:13:29.916Z,0
2016-08-15T02:13:54.067Z,0
2016-08-15T02:14:18.232Z,0
2016-08-15T02:14:42.364Z,0
2016-08-15T02:15:06.551Z,0
2016-08-15T02:15:30.706Z,0
2016-08-15T02:15:54.828Z,0
2016-08-15T02:16:19.833Z,0
2016-08-15T02:16:43.951Z,0
2016-08-15T02:17:08.087Z,0
2016-08-15T02:17:32.212Z,0
2016-08-15T02:17:56.366Z,0
2016-08-15T02:18:20.525Z,0
2016-08-15T02:18:44.717Z,0
2016-08-15T02:19:08.863Z,0
2016-08-15T02:19:32.973Z,0
2016-08-15T02:19:57.159Z,0
2016-08-15T02:20:21.287Z,0
2016-08-15T02:20:45.411Z,0
2016-08-15T02:21:09.519Z,0
2016-08-15T02:21:33.664Z,0
2016-08-15T02:21:57.828Z,0
2016-08-15T02:22:21.973Z,0
2016-08-15T02:22:46.083Z,0
2016-08-15T02:23:10.237Z,0
2016-08-15T02:23:34.413Z,0
2016-08-15T02:23:58.527Z,0
2016-08-15T02:24:22.673Z,0
2016-08-15T02:24:46.867Z,0
2016-08-15T02:25:11.020Z,0
2016-08-15T02:25:35.155Z,0
2016-08-15T02:25:59.292Z,0
2016-08-15T02:26:23.403Z,0
2016-08-15T02:26:47.578Z,0
2016-08-15T02:27:11.747Z,0
2016-08-15T02:27:35.886Z,0
2016-08-15T02:28:00.054Z,0
2016-08-15T02:28:24.173Z,0
2016-08-15T02:28:48.328Z,0
2016-08-15T02:29:12.476Z,0
2016-08-15T02:29:36.605Z,0
2016-08-15T02:30:00.770Z,0
2016-08-15T02:30:24.912Z,0
2016-08-15T02:30:49.041Z,0
2016-08-15T02:31:13.142Z,0
2016-08-15T02:31:37.248Z,0
2016-08-15T02:32:01.457Z,0
2016-08-15T02:32:25.608Z,0
2016-08-15T02:32:49.732Z,0
2016-08-15T02:33:13.894Z,0
2016-08-15T02:33:38.005Z,0
2016-08-15T02:34:02.176Z,0
2016-08-15T02:34:26.319Z,0
2016-08-15T02:34:50.457Z,0
2016-08-15T02:35:14.584Z,0
2016-08-15T02:35:38.768Z,0
2016-08-15T02:36:02.885Z,0
2016-08-15T02:36:27.058Z,0
2016-08-15T02:36:51.240Z,0
2016-08-15T02:37:15.395Z,0
2016-08-15T02:37:39.521Z,0
2016-08-15T02:38:03.619Z,0
2016-08-15T02:38:27.752Z,0
2016-08-15T02:38:51.876Z,0
2016-08-15T02:39:16.035Z,0
2016-08-15T02:39:40.165Z,0
2016-08-15T02:40:04.290Z,0
2016-08-15T02:40:28.391Z,0
2016-08-15T02:40:52.524Z,0
2016-08-15T02:41:16.673Z,0
2016-08-15T02:41:40.784Z,0
2016-08-15T02:42:04.904Z,0
2016-08-15T02:42:29.030Z,0
2016-08-15T02:42:53.150Z,0
2016-08-15T02:43:17.291Z,0
2016-08-15T02:43:41.410Z,0
2016-08-15T02:44:05.548Z,0
2016-08-15T02:44:29.657Z,0
2016-08-15T02:44:53.857Z,0
2016-08-15T02:45:17.978Z,0
2016-08-15T02:45:42.133Z,0
2016-08-15T02:46:06.250Z,0
2016-08-15T02:46:30.360Z,0
2016-08-15T02:46:54.472Z,0
2016-08-15T02:47:18.609Z,0
2016-08-15T02:47:42.748Z,0
2016-08-15T02:48:06.866Z,0
2016-08-15T02:48:30.984Z,0
2016-08-15T02:48:55.087Z,0
2016-08-15T02:49:19.253Z,0
2016-08-15T02:49:43.355Z,0
2016-08-15T02:50:07.475Z,0
2016-08-15T02:50:31.615Z,0
2016-08-15T02:50:55.753Z,0
2016-08-15T02:51:19.923Z,0
2016-08-15T02:51:44.070Z,0
2016-08-15T02:52:08.193Z,0
2016-08-15T02:52:32.370Z,0
2016-08-15T02:52:56.534Z,0
2016-08-15T02:53:20.643Z,0
2016-08-15T02:53:44.762Z,0
2016-08-15T02:54:08.872Z,0
2016-08-15T02:54:32.973Z,0
2016-08-15T02:54:57.127Z,0
2016-08-15T02:55:21.264Z,0
2016-08-15T02:55:45.371Z,0
2016-08-15T02:56:09.496Z,0
2016-08-15T02:56:33.607Z,0
2016-08-15T02:56:57.734Z,0
2016-08-15T02:57:21.852Z,0
2016-08-15T02:57:45.970Z,0
2016-08-15T02:58:10.109Z,0
2016-08-15T02:58:34.232Z,0
2016-08-15T02:58:58.348Z,0
2016-08-15T02:59:22.494Z,0
2016-08-15T02:59:46.633Z,0
2016-08-15T03:00:10.755Z,0
2016-08-15T03:00:34.868Z,0
2016-08-15T03:00:59.116Z,0
2016-08-15T03:01:23.275Z,0
2016-08-15T03:01:47.373Z,0
2016-08-15T03:02:11.481Z,0
2016-08-15T03:02:35.576Z,0
2016-08-15T03:02:59.702Z,0
2016-08-15T03:03:23.830Z,0
2016-08-15T03:03:48.167Z,0
2016-08-15T03:04:12.298Z,0
2016-08-15T03:04:36.430Z,0
2016-08-15T03:05:00.564Z,0
2016-08-15T03:05:24.696Z,0
2016-08-15T03:05:48.825Z,0
2016-08-15T03:06:12.930Z,0
2016-08-15T03:06:37.089Z,0
2016-08-15T03:07:01.236Z,0
2016-08-15T03:07:25.363Z,0
2016-08-15T03:07:49.503Z,0
2016-08-15T03:08:13.642Z,0
2016-08-15T03:08:37.760Z,0
2016-08-15T03:09:01.917Z,0
2016-08-15T03:09:26.096Z,0
2016-08-15T03:09:50.188Z,0
2016-08-15T03:10:14.329Z,0
2016-08-15T03:10:38.450Z,0
2016-08-15T03:11:02.596Z,0
2016-08-15T03:11:26.705Z,0
2016-08-15T03:11:50.842Z,0
2016-08-15T03:12:14.963Z,0
2016-08-15T03:12:39.065Z,0
2016-08-15T03:13:03.209Z,0
2016-08-15T03:13:27.388Z,0
2016-08-15T03:13:51.498Z,0
2016-08-15T03:14:15.632Z,4
2016-08-15T03:14:39.758Z,4
2016-08-15T03:15:03.904Z,4
2016-08-15T03:15:28.053Z,4
2016-08-15T03:15:52.191Z,4
2016-08-15T03:16:16.307Z,0
2016-08-15T03:16:40.416Z,0
2016-08-15T03:17:04.571Z,0
2016-08-15T03:17:28.686Z,0
2016-08-15T03:17:52.804Z,4
2016-08-15T03:18:16.938Z,4
2016-08-15T03:18:41.076Z,4
2016-08-15T03:19:05.198Z,4
2016-08-15T03:19:29.305Z,0
2016-08-15T03:19:53.446Z,4
2016-08-15T03:20:17.567Z,4
2016-08-15T03:20:41.682Z,4
2016-08-15T03:21:05.831Z,8
2016-08-15T03:21:29.985Z,4
2016-08-15T03:21:54.101Z,4
2016-08-15T03:22:18.221Z,8
2016-08-15T03:22:42.412Z,4
2016-08-15T03:23:06.558Z,8
2016-08-15T03:23:30.740Z,8
2016-08-15T03:23:54.878Z,4
2016-08-15T03:24:19.046Z,8
2016-08-15T03:24:43.178Z,12
2016-08-15T03:25:07.296Z,8
2016-08-15T03:25:31.450Z,12
2016-08-15T03:25:55.565Z,8
2016-08-15T03:26:19.693Z,12
2016-08-15T03:26:43.842Z,12
2016-08-15T03:27:07.936Z,12
2016-08-15T03:27:32.081Z,16
2016-08-15T03:27:56.256Z,16
2016-08-15T03:28:20.369Z,16
2016-08-15T03:28:44.513Z,16
2016-08-15T03:29:08.651Z,20
2016-08-15T03:29:32.769Z,20
2016-08-15T03:29:56.880Z,20
2016-08-15T03:30:21.004Z,20
2016-08-15T03:30:45.116Z,24
2016-08-15T03:31:09.230Z,24
2016-08-15T03:31:33.330Z,24
2016-08-15T03:31:57.442Z,28
2016-08-15T03:32:21.576Z,28
2016-08-15T03:32:45.699Z,32
2016-08-15T03:33:09.803Z,32
2016-08-15T03:33:33.951Z,32
2016-08-15T03:33:58.061Z,36
2016-08-15T03:34:22.538Z,40
2016-08-15T03:34:46.655Z,40
2016-08-15T03:35:10.777Z,44
2016-08-15T03:35:34.901Z,44
2016-08-15T03:35:59.029Z,48
2016-08-15T03:36:23.225Z,52
2016-08-15T03:36:47.347Z,52
2016-08-15T03:37:11.472Z,60
2016-08-15T03:37:35.612Z,60
2016-08-15T03:37:59.723Z,64
2016-08-15T03:38:23.831Z,64
2016-08-15T03:38:47.954Z,68
2016-08-15T03:39:12.088Z,72
2016-08-15T03:39:36.198Z,76
2016-08-15T03:40:00.324Z,80
2016-08-15T03:40:24.479Z,84
2016-08-15T03:40:48.608Z,88
2016-08-15T03:41:12.732Z,92
2016-08-15T03:41:36.849Z,96
2016-08-15T03:42:00.952Z,100
2016-08-15T03:42:25.093Z,100
2016-08-15T03:42:49.225Z,108
2016-08-15T03:43:13.343Z,116
2016-08-15T03:43:37.469Z,116
2016-08-15T03:44:02.841Z,128
2016-08-15T03:44:26.987Z,128
2016-08-15T03:44:51.096Z,136
2016-08-15T03:45:15.229Z,144
2016-08-15T03:45:39.357Z,144
2016-08-15T03:46:03.516Z,152
2016-08-15T03:46:27.654Z,160
2016-08-15T03:46:51.814Z,164
2016-08-15T03:47:15.925Z,172
2016-08-15T03:47:40.073Z,176
2016-08-15T03:48:04.221Z,180
2016-08-15T03:48:28.362Z,188
2016-08-15T03:48:52.476Z,196
2016-08-15T03:49:16.591Z,200
2016-08-15T03:49:40.716Z,208
2016-08-15T03:50:04.830Z,220
2016-08-15T03:50:28.947Z,228
2016-08-15T03:50:53.078Z,232
2016-08-15T03:51:17.214Z,240
2016-08-15T03:51:41.322Z,248
2016-08-15T03:52:05.472Z,252
2016-08-15T03:52:29.583Z,264
2016-08-15T03:52:53.703Z,268
2016-08-15T03:53:17.815Z,276
2016-08-15T03:53:41.937Z,288
2016-08-15T03:54:06.074Z,292
2016-08-15T03:54:30.212Z,304
2016-08-15T03:54:54.345Z,308
2016-08-15T03:55:18.493Z,316
2016-08-15T03:55:42.657Z,324
2016-08-15T03:56:06.761Z,332
2016-08-15T03:56:30.889Z,344
2016-08-15T03:56:55.049Z,356
2016-08-15T03:57:19.180Z,368
2016-08-15T03:57:43.295Z,380
2016-08-15T03:58:07.464Z,392
2016-08-15T03:58:31.584Z,404
2016-08-15T03:58:55.717Z,420
2016-08-15T03:59:19.869Z,428
2016-08-15T03:59:44.001Z,444
2016-08-15T04:00:08.357Z,456
2016-08-15T04:00:32.480Z,468
2016-08-15T04:00:56.587Z,484
2016-08-15T04:01:20.703Z,496
2016-08-15T04:01:44.915Z,504
2016-08-15T04:02:09.035Z,512
2016-08-15T04:02:33.136Z,528
2016-08-15T04:02:57.282Z,536
2016-08-15T04:03:21.422Z,548
2016-08-15T04:03:45.586Z,560
2016-08-15T04:04:09.709Z,568
2016-08-15T04:04:33.828Z,576
2016-08-15T04:04:57.942Z,580
2016-08-15T04:05:22.141Z,592
2016-08-15T04:05:46.301Z,604
2016-08-15T04:06:10.406Z,612
2016-08-15T04:06:34.558Z,628
2016-08-15T04:06:58.685Z,648
2016-08-15T04:07:22.839Z,664
2016-08-15T04:07:47.002Z,680
2016-08-15T04:08:11.191Z,696
2016-08-15T04:08:35.331Z,708
2016-08-15T04:08:59.489Z,716
2016-08-15T04:09:23.627Z,732
2016-08-15T04:09:47.758Z,744
2016-08-15T04:10:11.897Z,764
2016-08-15T04:10:36.090Z,780
2016-08-15T04:11:00.210Z,800
2016-08-15T04:11:24.327Z,820
2016-08-15T04:11:48.434Z,836
2016-08-15T04:12:12.568Z,844
2016-08-15T04:12:36.729Z,852
2016-08-15T04:13:00.859Z,860
2016-08-15T04:13:24.987Z,868
2016-08-15T04:13:49.120Z,884
2016-08-15T04:14:13.249Z,904
2016-08-15T04:14:37.361Z,924
2016-08-15T04:15:01.522Z,944
2016-08-15T04:15:25.643Z,960
2016-08-15T04:15:49.781Z,976
2016-08-15T04:16:13.915Z,988
2016-08-15T04:16:38.052Z,1000
2016-08-15T04:17:02.178Z,1012
2016-08-15T04:17:26.283Z,1028
2016-08-15T04:17:50.411Z,1052
2016-08-15T04:18:14.584Z,1076
2016-08-15T04:18:38.743Z,1120
2016-08-15T04:19:02.865Z,1160
2016-08-15T04:19:26.997Z,1200
2016-08-15T04:19:51.153Z,1236
2016-08-15T04:20:15.314Z,1264
2016-08-15T04:20:39.422Z,1292
2016-08-15T04:21:03.555Z,1316
2016-08-15T04:21:27.724Z,1364
2016-08-15T04:21:51.855Z,1412
2016-08-15T04:22:15.968Z,1448
2016-08-15T04:22:40.113Z,1468
2016-08-15T04:23:04.257Z,1492
2016-08-15T04:23:28.486Z,1528
2016-08-15T04:23:52.597Z,1576
2016-08-15T04:24:16.752Z,1652
2016-08-15T04:24:40.879Z,1712
2016-08-15T04:25:05.015Z,1732
2016-08-15T04:25:29.211Z,1732
2016-08-15T04:25:53.313Z,1720
2016-08-15T04:26:17.483Z,1716
2016-08-15T04:26:41.613Z,1736
2016-08-15T04:27:05.769Z,1776
2016-08-15T04:27:29.900Z,1820
2016-08-15T04:27:54.030Z,1860
2016-08-15T04:28:18.150Z,1892
2016-08-15T04:28:42.286Z,1912
2016-08-15T04:29:06.443Z,1944
2016-08-15T04:29:30.575Z,1976
2016-08-15T04:29:54.696Z,1996
2016-08-15T04:30:18.835Z,2020
2016-08-15T04:30:42.960Z,2040
2016-08-15T04:31:07.088Z,2048
2016-08-15T04:31:31.286Z,2060
2016-08-15T04:31:55.405Z,2100
2016-08-15T04:32:19.546Z,2144
2016-08-15T04:32:43.679Z,2192
2016-08-15T04:33:07.791Z,2224
2016-08-15T04:33:31.933Z,2260
2016-08-15T04:33:56.055Z,2304
2016-08-15T04:34:20.208Z,2320
2016-08-15T04:34:44.387Z,2320
2016-08-15T04:35:08.489Z,2316
2016-08-15T04:35:32.597Z,2304
2016-08-15T04:35:56.758Z,2280
2016-08-15T04:36:20.900Z,2264
2016-08-15T04:36:45.052Z,2268
2016-08-15T04:37:09.162Z,2288
2016-08-15T04:37:33.296Z,2312
2016-08-15T04:37:57.413Z,2356
2016-08-15T04:38:21.570Z,2400
2016-08-15T04:38:45.715Z,2408
2016-08-15T04:39:09.840Z,2400
2016-08-15T04:39:33.992Z,2408
2016-08-15T04:39:58.157Z,2436
2016-08-15T04:40:22.291Z,2476
2016-08-15T04:40:46.414Z,2520
2016-08-15T04:41:10.564Z,2588
2016-08-15T04:41:34.699Z,2640
2016-08-15T04:41:58.855Z,2676
2016-08-15T04:42:22.983Z,2712
2016-08-15T04:42:47.088Z,2756
2016-08-15T04:43:11.225Z,2800
2016-08-15T04:43:35.353Z,2844
2016-08-15T04:43:59.523Z,2880
2016-08-15T04:44:23.655Z,2936
2016-08-15T04:44:47.769Z,2960
2016-08-15T04:45:11.886Z,2976
2016-08-15T04:45:36.020Z,2996
2016-08-15T04:46:00.169Z,3020
2016-08-15T04:46:24.298Z,3036
2016-08-15T04:46:48.429Z,3060
2016-08-15T04:47:12.592Z,3104
2016-08-15T04:47:36.729Z,3156
2016-08-15T04:48:00.888Z,3216
2016-08-15T04:48:25.005Z,3264
2016-08-15T04:48:49.122Z,3304
2016-08-15T04:49:13.264Z,3340
2016-08-15T04:49:37.379Z,3376
2016-08-15T04:50:01.505Z,3400
2016-08-15T04:50:25.665Z,3412
2016-08-15T04:50:49.774Z,3436
2016-08-15T04:51:13.938Z,3488
2016-08-15T04:51:38.075Z,3540
2016-08-15T04:52:02.205Z,3592
2016-08-15T04:52:27.241Z,3640
2016-08-15T04:52:51.381Z,3684
2016-08-15T04:53:15.553Z,3712
2016-08-15T04:53:39.675Z,3716
2016-08-15T04:54:03.804Z,3680
2016-08-15T04:54:27.948Z,3644
2016-08-15T04:54:52.938Z,3592
2016-08-15T04:55:17.115Z,3548
2016-08-15T04:55:41.248Z,3528
2016-08-15T04:56:05.368Z,3484
2016-08-15T04:56:29.486Z,3456
2016-08-15T04:56:53.612Z,3424
2016-08-15T04:57:17.737Z,3376
2016-08-15T04:57:41.881Z,3356
2016-08-15T04:58:05.978Z,3348
2016-08-15T04:58:30.113Z,3384
2016-08-15T04:58:54.284Z,3420
2016-08-15T04:59:18.424Z,3448
2016-08-15T04:59:42.562Z,3496
2016-08-15T05:00:06.666Z,3556
2016-08-15T05:00:30.779Z,3632
2016-08-15T05:00:54.885Z,3716
2016-08-15T05:01:19.004Z,3796
2016-08-15T05:01:43.139Z,3884
2016-08-15T05:02:07.249Z,3940
2016-08-15T05:02:31.372Z,3980
2016-08-15T05:02:55.502Z,4048
2016-08-15T05:03:19.610Z,4144
2016-08-15T05:03:43.727Z,4244
2016-08-15T05:04:07.876Z,4336
2016-08-15T05:04:31.973Z,4384
2016-08-15T05:04:56.083Z,4412
2016-08-15T05:05:20.203Z,4444
2016-08-15T05:05:44.322Z,4464
2016-08-15T05:06:08.459Z,4504
2016-08-15T05:06:32.595Z,4548
2016-08-15T05:06:56.721Z,4560
2016-08-15T05:07:20.855Z,4576
2016-08-15T05:07:44.981Z,4576
2016-08-15T05:08:09.108Z,4544
2016-08-15T05:08:33.239Z,4524
2016-08-15T05:08:57.351Z,4564
2016-08-15T05:09:21.504Z,4596
2016-08-15T05:09:45.679Z,4636
2016-08-15T05:10:09.806Z,4676
2016-08-15T05:10:33.917Z,4708
2016-08-15T05:10:58.150Z,4660
2016-08-15T05:11:22.295Z,4600
2016-08-15T05:11:46.459Z,4572
2016-08-15T05:12:10.596Z,4604
2016-08-15T05:12:34.735Z,4676
2016-08-15T05:12:59.051Z,4760
2016-08-15T05:13:23.177Z,4856
2016-08-15T05:13:47.278Z,4908
2016-08-15T05:14:11.427Z,4944
2016-08-15T05:14:35.559Z,4984
2016-08-15T05:14:59.688Z,5008
2016-08-15T05:15:23.812Z,5084
2016-08-15T05:15:47.918Z,5172
2016-08-15T05:16:12.057Z,5256
2016-08-15T05:16:36.172Z,5376
2016-08-15T05:17:00.312Z,5432
2016-08-15T05:17:24.434Z,5472
2016-08-15T05:17:48.566Z,5476
2016-08-15T05:18:12.705Z,5464
2016-08-15T05:18:36.843Z,5480
2016-08-15T05:19:00.951Z,5552
2016-08-15T05:19:25.088Z,5616
2016-08-15T05:19:49.245Z,5736
2016-08-15T05:20:13.398Z,5804
2016-08-15T05:20:37.516Z,5804
2016-08-15T05:21:01.651Z,5808
2016-08-15T05:21:25.764Z,5868
2016-08-15T05:21:49.885Z,5956
2016-08-15T05:22:14.018Z,6020
2016-08-15T05:22:38.161Z,6012
2016-08-15T05:23:02.302Z,6104
2016-08-15T05:23:26.438Z,6160
2016-08-15T05:23:50.555Z,6192
2016-08-15T05:24:14.650Z,6156
2016-08-15T05:24:38.769Z,6116
2016-08-15T05:25:02.935Z,6104
2016-08-15T05:25:27.075Z,6108
2016-08-15T05:25:51.217Z,6144
2016-08-15T05:26:15.377Z,6164
2016-08-15T05:26:39.504Z,6136
2016-08-15T05:27:03.630Z,6112
2016-08-15T05:27:27.770Z,6104
2016-08-15T05:27:51.916Z,6088
2016-08-15T05:28:16.078Z,6124
2016-08-15T05:28:40.231Z,6156
2016-08-15T05:29:04.357Z,6164
2016-08-15T05:29:28.480Z,6128
2016-08-15T05:29:52.605Z,6072
2016-08-15T05:30:16.718Z,6012
2016-08-15T05:30:40.842Z,5884
2016-08-15T05:31:04.968Z,5804
2016-08-15T05:31:29.096Z,5776
2016-08-15T05:31:53.221Z,5780
2016-08-15T05:32:17.357Z,5784
2016-08-15T05:32:41.483Z,5768
2016-08-15T05:33:05.606Z,5724
2016-08-15T05:33:29.726Z,5700
2016-08-15T05:33:54.429Z,5712
2016-08-15T05:34:19.479Z,5660
2016-08-15T05:34:43.604Z,5636
2016-08-15T05:35:07.735Z,5672
2016-08-15T05:35:31.894Z,5656
2016-08-15T05:35:56.093Z,5632
2016-08-15T05:36:20.202Z,5600
2016-08-15T05:36:44.400Z,5572
2016-08-15T05:37:08.530Z,5548
2016-08-15T05:37:32.694Z,5536
2016-08-15T05:37:56.819Z,5544
2016-08-15T05:38:20.929Z,5528
2016-08-15T05:38:45.055Z,5456
2016-08-15T05:39:09.194Z,5376
2016-08-15T05:39:33.330Z,5324
2016-08-15T05:39:57.464Z,5336
2016-08-15T05:40:21.600Z,5392
2016-08-15T05:40:45.711Z,5412
2016-08-15T05:41:09.821Z,5480
2016-08-15T05:41:34.009Z,5532
2016-08-15T05:41:58.130Z,5560
2016-08-15T05:42:22.265Z,5500
2016-08-15T05:42:46.414Z,5460
2016-08-15T05:43:10.545Z,5420
2016-08-15T05:43:34.633Z,5356
2016-08-15T05:43:58.763Z,5276
2016-08-15T05:44:22.891Z,5196